createdAt,value
2023-03-27T00:00:12.515Z,3.300
2023-03-27T00:01:13.613Z,3.500
2023-03-27T00:02:12.898Z,3.200
2023-03-27T00:03:12.371Z,3.500
2023-03-27T00:04:18.205Z,4.000
2023-03-27T00:05:12.031Z,3.400
2023-03-27T00:06:12.184Z,3.700
2023-03-27T00:07:12.402Z,3.400
2023-03-27T00:08:12.652Z,3.900
2023-03-27T00:09:11.773Z,3.700
2023-03-27T00:10:11.978Z,4.300
2023-03-27T00:11:12.500Z,3.800
2023-03-27T00:12:12.674Z,3.700
2023-03-27T00:13:11.801Z,4.500
2023-03-27T00:14:16.981Z,3.900
2023-03-27T00:16:12.367Z,4.000
2023-03-27T00:17:12.768Z,4.200
2023-03-27T00:18:12.153Z,4.000
2023-03-27T00:20:12.017Z,4.000
2023-03-27T00:21:12.604Z,4.300
2023-03-27T00:22:12.776Z,4.000
2023-03-27T00:23:11.981Z,3.800
2023-03-27T00:24:12.116Z,3.900
2023-03-27T00:25:12.346Z,4.200
2023-03-27T00:26:12.535Z,4.300
2023-03-27T00:27:12.725Z,3.500
2023-03-27T00:28:11.872Z,4.100
2023-03-27T00:29:12.115Z,3.900
2023-03-27T00:30:12.262Z,4.000
2023-03-27T00:31:13.205Z,3.900
2023-03-27T00:32:12.526Z,3.700
2023-03-27T00:33:12.960Z,3.700
2023-03-27T00:34:12.044Z,3.900
2023-03-27T00:35:12.379Z,4.000
2023-03-27T00:36:12.783Z,3.300
2023-03-27T00:37:12.044Z,3.600
2023-03-27T00:38:12.210Z,3.300
2023-03-27T00:39:12.368Z,4.100
2023-03-27T00:40:12.580Z,3.700
2023-03-27T00:41:14.356Z,3.900
2023-03-27T00:42:12.536Z,3.400
2023-03-27T00:43:12.749Z,3.600
2023-03-27T00:44:11.881Z,3.300
2023-03-27T00:45:12.038Z,3.500
2023-03-27T00:46:12.432Z,3.500
2023-03-27T00:47:12.715Z,3.900
2023-03-27T00:48:11.929Z,3.700
2023-03-27T00:49:12.112Z,3.400
2023-03-27T00:50:12.319Z,3.000
2023-03-27T00:51:12.840Z,3.500
2023-03-27T00:52:11.943Z,3.100
2023-03-27T00:53:12.055Z,2.900
2023-03-27T00:54:12.300Z,2.500
2023-03-27T00:55:12.576Z,2.700
2023-03-27T00:56:11.694Z,2.400
2023-03-27T00:57:12.142Z,2.500
2023-03-27T00:58:12.567Z,2.300
2023-03-27T00:59:12.766Z,2.100
2023-03-27T01:00:12.570Z,1.900
2023-03-27T01:01:13.094Z,2.100
2023-03-27T01:02:12.344Z,1.700
2023-03-27T01:03:17.909Z,1.900
2023-03-27T01:06:12.709Z,1.700
2023-03-27T01:07:11.840Z,1.600
2023-03-27T01:08:18.460Z,1.600
2023-03-27T01:11:12.368Z,1.400
2023-03-27T01:12:12.589Z,1.500
2023-03-27T01:13:12.724Z,1.600
2023-03-27T01:14:11.891Z,1.300
2023-03-27T01:15:12.157Z,1.200
2023-03-27T01:16:12.463Z,1.400
2023-03-27T01:17:12.787Z,1.300
2023-03-27T01:18:12.051Z,1.200
2023-03-27T01:19:12.184Z,0.800
2023-03-27T01:20:12.531Z,1.500
2023-03-27T01:21:16.851Z,1.400
2023-03-27T01:26:12.820Z,1.100
2023-03-27T01:27:12.032Z,0.800
2023-03-27T01:28:12.200Z,0.900
2023-03-27T01:29:12.642Z,0.900
2023-03-27T01:30:12.152Z,0.800
2023-03-27T01:31:12.975Z,0.700
2023-03-27T01:32:12.446Z,0.600
2023-03-27T01:33:12.845Z,0.700
2023-03-27T01:34:12.011Z,0.700
2023-03-27T01:35:20.607Z,0.600
2023-03-27T01:37:12.154Z,0.700
2023-03-27T01:38:12.320Z,0.800
2023-03-27T01:39:12.565Z,0.800
2023-03-27T01:40:12.715Z,0.700
2023-03-27T01:41:12.243Z,0.900
2023-03-27T01:42:12.413Z,0.900
2023-03-27T01:43:12.716Z,0.900
2023-03-27T01:44:11.997Z,0.800
2023-03-27T01:45:17.080Z,0.700
2023-03-27T01:48:12.952Z,0.600
2023-03-27T01:49:12.069Z,0.800
2023-03-27T01:50:12.262Z,0.800
2023-03-27T01:51:12.981Z,0.800
2023-03-27T01:52:12.155Z,0.600
2023-03-27T01:53:12.347Z,0.700
2023-03-27T01:54:12.487Z,0.900
2023-03-27T01:55:12.765Z,0.600
2023-03-27T01:56:11.944Z,0.800
2023-03-27T01:57:12.691Z,0.700
2023-03-27T01:58:16.899Z,0.900
2023-03-27T02:01:16.971Z,0.800
2023-03-27T02:03:12.454Z,0.500
2023-03-27T02:04:12.649Z,0.600
2023-03-27T02:05:12.143Z,0.700
2023-03-27T02:06:12.341Z,0.700
2023-03-27T02:07:12.513Z,0.700
2023-03-27T02:08:12.751Z,0.700
2023-03-27T02:09:11.924Z,0.500
2023-03-27T02:10:12.037Z,0.500
2023-03-27T02:11:12.621Z,0.400
2023-03-27T02:12:11.915Z,0.600
2023-03-27T02:13:12.074Z,0.600
2023-03-27T02:14:12.369Z,0.300
2023-03-27T02:15:24.857Z,0.600
2023-03-27T02:18:14.884Z,0.500
2023-03-27T02:19:14.057Z,0.500
2023-03-27T02:20:14.235Z,0.400
2023-03-27T02:21:14.851Z,0.300
2023-03-27T02:22:14.074Z,0.500
2023-03-27T02:23:14.544Z,0.400
2023-03-27T02:24:14.724Z,0.400
2023-03-27T02:25:13.860Z,0.400
2023-03-27T02:26:14.131Z,0.300
2023-03-27T02:27:14.340Z,0.300
2023-03-27T02:28:14.578Z,0.500
2023-03-27T02:29:14.741Z,0.300
2023-03-27T02:30:13.921Z,0.400
2023-03-27T02:34:22.028Z,0.600
2023-03-27T02:35:22.201Z,0.400
2023-03-27T02:36:22.593Z,0.400
2023-03-27T02:37:22.710Z,0.300
2023-03-27T02:38:22.825Z,0.600
2023-03-27T02:39:21.985Z,0.500
2023-03-27T02:40:22.181Z,0.400
2023-03-27T02:41:22.406Z,0.500
2023-03-27T02:42:22.569Z,0.400
2023-03-27T02:43:22.795Z,0.600
2023-03-27T02:44:21.968Z,0.500
2023-03-27T02:45:22.261Z,0.500
2023-03-27T02:46:22.602Z,0.400
2023-03-27T02:47:21.884Z,0.500
2023-03-27T02:48:22.210Z,0.600
2023-03-27T02:49:22.367Z,0.700
2023-03-27T02:50:22.551Z,0.900
2023-03-27T02:51:22.746Z,0.800
2023-03-27T02:52:21.922Z,0.800
2023-03-27T02:53:22.108Z,0.700
2023-03-27T02:54:22.351Z,0.700
2023-03-27T02:55:22.557Z,0.800
2023-03-27T02:56:22.768Z,0.800
2023-03-27T02:57:24.898Z,0.800
2023-03-27T03:01:22.153Z,1.000
2023-03-27T03:02:22.829Z,1.000
2023-03-27T03:03:22.755Z,1.200
2023-03-27T03:04:21.889Z,1.000
2023-03-27T03:05:22.097Z,0.900
2023-03-27T03:06:22.418Z,0.800
2023-03-27T03:07:22.633Z,0.800
2023-03-27T03:08:21.849Z,0.900
2023-03-27T03:09:22.153Z,1.100
2023-03-27T03:10:22.328Z,0.900
2023-03-27T03:11:22.497Z,1.100
2023-03-27T03:12:22.656Z,1.100
2023-03-27T03:13:21.835Z,1.200
2023-03-27T03:14:22.115Z,1.200
2023-03-27T03:15:22.355Z,1.300
2023-03-27T03:16:24.450Z,1.200
2023-03-27T03:17:22.655Z,1.400
2023-03-27T03:18:22.012Z,1.400
2023-03-27T03:19:22.252Z,1.400
2023-03-27T03:20:22.450Z,1.600
2023-03-27T03:21:22.694Z,1.500
2023-03-27T03:22:21.759Z,1.400
2023-03-27T03:23:21.991Z,1.700
2023-03-27T03:24:27.036Z,1.400
2023-03-27T03:26:22.956Z,1.800
2023-03-27T03:27:22.099Z,1.600
2023-03-27T03:28:22.556Z,1.800
2023-03-27T03:29:30.167Z,1.500
2023-03-27T03:31:22.905Z,1.800
2023-03-27T03:32:22.172Z,2.000
2023-03-27T03:33:22.623Z,2.200
2023-03-27T03:34:22.907Z,1.900
2023-03-27T03:35:22.079Z,2.000
2023-03-27T03:36:22.465Z,2.200
2023-03-27T03:37:22.743Z,2.200
2023-03-27T03:38:22.789Z,3.200
2023-03-27T03:39:21.964Z,3.000
2023-03-27T03:40:22.185Z,3.000
2023-03-27T03:41:22.395Z,3.000
2023-03-27T03:42:25.584Z,3.300
2023-03-27T03:44:22.142Z,4.600
2023-03-27T03:45:22.309Z,4.700
2023-03-27T03:46:22.748Z,4.600
2023-03-27T03:47:22.240Z,4.200
2023-03-27T03:48:22.488Z,4.200
2023-03-27T03:49:22.920Z,4.400
2023-03-27T03:50:22.060Z,4.000
2023-03-27T03:51:22.243Z,5.100
2023-03-27T03:52:23.612Z,5.300
2023-03-27T03:53:21.779Z,5.500
2023-03-27T03:54:21.913Z,6.100
2023-03-27T03:55:22.910Z,6.200
2023-03-27T03:56:22.327Z,6.400
2023-03-27T03:57:23.149Z,6.500
2023-03-27T03:58:33.995Z,6.900
2023-03-27T03:59:22.476Z,6.500
2023-03-27T04:00:22.656Z,6.500
2023-03-27T04:01:21.746Z,6.400
2023-03-27T04:02:22.455Z,7.200
2023-03-27T04:03:23.351Z,7.000
2023-03-27T04:04:22.537Z,6.500
2023-03-27T04:05:27.842Z,7.500
2023-03-27T04:08:22.163Z,8.200
2023-03-27T04:09:22.318Z,8.400
2023-03-27T04:10:22.493Z,7.500
2023-03-27T04:11:22.860Z,8.800
2023-03-27T04:12:22.047Z,8.500
2023-03-27T04:13:22.196Z,8.000
2023-03-27T04:14:22.446Z,8.200
2023-03-27T04:15:22.643Z,8.100
2023-03-27T04:16:22.016Z,8.600
2023-03-27T04:17:22.367Z,8.400
2023-03-27T04:18:23.255Z,7.800
2023-03-27T04:19:22.333Z,8.500
2023-03-27T04:20:22.584Z,7.900
2023-03-27T04:21:22.743Z,7.700
2023-03-27T04:22:21.879Z,7.000
2023-03-27T04:23:22.115Z,7.700
2023-03-27T04:24:22.335Z,8.600
2023-03-27T04:25:22.673Z,8.400
2023-03-27T04:26:22.402Z,8.400
2023-03-27T04:27:22.745Z,8.600
2023-03-27T04:29:22.052Z,9.300
2023-03-27T04:30:22.284Z,8.900
2023-03-27T04:31:22.610Z,8.500
2023-03-27T04:32:21.952Z,9.300
2023-03-27T04:33:25.205Z,8.600
2023-03-27T04:34:22.441Z,8.800
2023-03-27T04:35:22.713Z,7.500
2023-03-27T04:36:26.141Z,7.700
2023-03-27T04:37:27.028Z,8.900
2023-03-27T04:40:22.647Z,8.800
2023-03-27T04:41:21.839Z,8.400
2023-03-27T04:42:22.007Z,8.500
2023-03-27T04:43:22.189Z,8.300
2023-03-27T04:44:22.370Z,9.100
2023-03-27T04:45:22.626Z,8.300
2023-03-27T04:46:21.878Z,8.600
2023-03-27T04:48:22.620Z,8.800
2023-03-27T04:54:22.168Z,8.200
2023-03-27T04:55:22.353Z,9.300
2023-03-27T04:56:22.525Z,8.700
2023-03-27T04:57:23.428Z,8.300
2023-03-27T04:58:22.608Z,8.400
2023-03-27T04:59:22.800Z,8.200
2023-03-27T05:00:22.009Z,9.200
2023-03-27T05:01:22.621Z,8.800
2023-03-27T05:02:21.991Z,8.300
2023-03-27T05:03:22.603Z,9.000
2023-03-27T05:04:21.943Z,8.600
2023-03-27T05:05:22.144Z,8.800
2023-03-27T05:06:22.285Z,9.300
2023-03-27T05:07:22.427Z,9.100
2023-03-27T05:08:22.675Z,9.400
2023-03-27T05:09:21.831Z,9.100
2023-03-27T05:10:25.260Z,9.200
2023-03-27T05:12:22.795Z,9.000
2023-03-27T05:13:21.963Z,9.200
2023-03-27T05:14:22.151Z,9.600
2023-03-27T05:15:22.582Z,9.500
2023-03-27T05:16:23.009Z,8.500
2023-03-27T05:17:22.272Z,9.500
2023-03-27T05:19:23.612Z,9.700
2023-03-27T05:20:22.701Z,8.600
2023-03-27T05:21:21.812Z,10.200
2023-03-27T05:22:21.991Z,10.200
2023-03-27T05:23:22.426Z,8.800
2023-03-27T05:24:22.668Z,9.500
2023-03-27T05:25:21.817Z,9.600
2023-03-27T05:26:21.992Z,10.200
2023-03-27T05:27:22.184Z,8.800
2023-03-27T05:28:22.395Z,9.300
2023-03-27T05:29:22.524Z,9.400
2023-03-27T05:30:23.894Z,9.600
2023-03-27T05:31:22.335Z,9.000
2023-03-27T05:32:22.524Z,9.200
2023-03-27T05:33:22.824Z,9.100
2023-03-27T05:34:22.020Z,8.500
2023-03-27T05:35:22.324Z,9.400
2023-03-27T05:36:22.669Z,9.700
2023-03-27T05:37:21.943Z,9.100
2023-03-27T05:38:22.139Z,9.600
2023-03-27T05:39:22.446Z,8.900
2023-03-27T05:40:22.682Z,8.700
2023-03-27T05:41:21.773Z,8.500
2023-03-27T05:42:22.049Z,8.800
2023-03-27T05:43:22.285Z,9.900
2023-03-27T05:44:22.551Z,9.500
2023-03-27T05:45:22.721Z,9.000
2023-03-27T05:46:23.090Z,8.900
2023-03-27T05:49:22.000Z,9.300
2023-03-27T05:50:22.175Z,9.400
2023-03-27T05:51:22.339Z,10.200
2023-03-27T05:52:28.875Z,9.500
2023-03-27T05:53:27.900Z,9.000
2023-03-27T05:55:22.815Z,9.900
2023-03-27T05:56:22.402Z,9.800
2023-03-27T05:57:23.430Z,9.600
2023-03-27T05:58:22.549Z,8.700
2023-03-27T05:59:21.991Z,8.500
2023-03-27T06:00:22.156Z,10.200
2023-03-27T06:01:22.346Z,8.700
2023-03-27T06:02:24.546Z,8.700
2023-03-27T06:03:23.749Z,8.700
2023-03-27T06:06:21.848Z,8.800
2023-03-27T06:07:22.013Z,8.700
2023-03-27T06:08:22.207Z,9.100
2023-03-27T06:09:22.417Z,8.600
2023-03-27T06:10:24.526Z,8.800
2023-03-27T06:11:22.629Z,8.700
2023-03-27T06:14:22.033Z,7.800
2023-03-27T06:15:22.297Z,8.400
2023-03-27T06:16:23.152Z,8.400
2023-03-27T06:17:22.300Z,7.900
2023-03-27T06:18:22.701Z,8.800
2023-03-27T06:19:21.948Z,7.900
2023-03-27T06:20:22.160Z,8.400
2023-03-27T06:21:23.797Z,8.600
2023-03-27T06:22:21.967Z,8.600
2023-03-27T06:23:22.543Z,8.100
2023-03-27T06:24:22.706Z,8.200
2023-03-27T06:25:21.995Z,7.600
2023-03-27T06:26:22.244Z,8.700
2023-03-27T06:27:22.485Z,8.500
2023-03-27T06:28:22.686Z,9.400
2023-03-27T06:29:26.796Z,8.700
2023-03-27T06:32:22.736Z,8.400
2023-03-27T06:33:22.037Z,9.000
2023-03-27T06:34:22.359Z,8.600
2023-03-27T06:35:22.615Z,7.900
2023-03-27T06:36:28.011Z,8.300
2023-03-27T06:39:22.605Z,8.200
2023-03-27T06:40:23.195Z,8.400
2023-03-27T06:41:22.353Z,8.300
2023-03-27T06:42:22.509Z,7.900
2023-03-27T06:43:23.093Z,8.100
2023-03-27T06:44:22.247Z,7.500
2023-03-27T06:45:22.474Z,7.500
2023-03-27T06:46:27.530Z,7.600
2023-03-27T06:50:25.508Z,8.200
2023-03-27T06:51:25.696Z,7.900
2023-03-27T06:52:24.933Z,7.200
2023-03-27T06:53:39.880Z,7.800
2023-03-27T06:55:33.003Z,7.700
2023-03-27T06:59:28.991Z,8.200
2023-03-27T07:00:28.387Z,7.600
2023-03-27T07:01:28.942Z,7.700
2023-03-27T07:02:28.342Z,7.200
2023-03-27T07:03:28.920Z,7.900
2023-03-27T07:04:28.332Z,6.700
2023-03-27T07:05:28.749Z,8.200
2023-03-27T07:06:28.188Z,7.700
2023-03-27T07:07:28.389Z,6.900
2023-03-27T07:08:34.742Z,6.900
2023-03-27T07:11:35.077Z,7.100
2023-03-27T07:14:27.950Z,5.800
2023-03-27T07:15:28.259Z,6.400
2023-03-27T07:16:28.861Z,5.900
2023-03-27T07:17:45.824Z,6.100
2023-03-27T07:19:31.369Z,6.100
2023-03-27T07:20:31.732Z,6.100
2023-03-27T07:21:31.387Z,5.500
2023-03-27T07:22:31.650Z,5.500
2023-03-27T07:23:30.923Z,5.700
2023-03-27T07:24:31.159Z,5.400
2023-03-27T07:25:31.315Z,4.800
2023-03-27T07:26:31.993Z,4.700
2023-03-27T07:27:31.464Z,4.500
2023-03-27T07:28:31.638Z,5.400
2023-03-27T07:29:30.792Z,4.900
2023-03-27T07:30:30.994Z,4.300
2023-03-27T07:34:38.434Z,3.900
2023-03-27T07:35:39.000Z,4.200
2023-03-27T07:36:38.163Z,3.400
2023-03-27T07:37:40.921Z,4.100
2023-03-27T07:42:38.220Z,3.100
2023-03-27T07:43:38.546Z,3.500
2023-03-27T07:44:40.187Z,3.500
2023-03-27T07:45:40.563Z,2.800
2023-03-27T07:46:38.752Z,3.000
2023-03-27T07:47:38.078Z,2.700
2023-03-27T07:48:38.509Z,3.000
2023-03-27T07:51:40.991Z,2.600
2023-03-27T07:52:38.133Z,2.600
2023-03-27T07:53:43.343Z,2.700
2023-03-27T07:56:39.023Z,2.800
2023-03-27T07:57:55.351Z,2.400
2023-03-27T08:01:39.072Z,2.100
2023-03-27T08:02:38.371Z,2.000
2023-03-27T08:03:39.527Z,2.200
2023-03-27T08:04:38.170Z,2.400
2023-03-27T08:05:38.507Z,2.100
2023-03-27T08:06:38.812Z,1.900
2023-03-27T08:07:38.001Z,2.200
2023-03-27T08:08:38.308Z,2.400
2023-03-27T08:09:38.592Z,2.200
2023-03-27T08:10:37.748Z,2.200
2023-03-27T08:11:47.828Z,2.200
2023-03-27T08:13:38.393Z,2.300
2023-03-27T08:14:38.743Z,1.900
2023-03-27T08:15:37.875Z,2.400
2023-03-27T08:16:38.386Z,1.800
2023-03-27T08:17:44.108Z,2.200
2023-03-27T08:20:37.858Z,1.900
2023-03-27T08:21:38.248Z,1.900
2023-03-27T08:22:38.669Z,1.700
2023-03-27T08:23:37.934Z,1.800
2023-03-27T08:24:38.227Z,2.300
2023-03-27T08:25:38.516Z,2.000
2023-03-27T08:26:38.807Z,2.200
2023-03-27T08:27:37.931Z,1.700
2023-03-27T08:28:38.154Z,2.100
2023-03-27T08:29:38.589Z,1.700
2023-03-27T08:30:38.978Z,1.600
2023-03-27T08:31:38.240Z,2.000
2023-03-27T08:32:38.738Z,1.500
2023-03-27T08:33:37.988Z,1.500
2023-03-27T08:34:38.170Z,1.800
2023-03-27T08:35:38.684Z,1.700
2023-03-27T08:36:37.932Z,1.700
2023-03-27T08:37:38.167Z,1.500
2023-03-27T08:40:38.120Z,1.300
2023-03-27T08:41:39.212Z,1.200
2023-03-27T08:42:38.457Z,1.300
2023-03-27T08:43:38.728Z,1.200
2023-03-27T08:44:37.847Z,1.300
2023-03-27T08:45:38.134Z,1.900
2023-03-27T08:46:38.915Z,1.800
2023-03-27T08:47:38.138Z,1.900
2023-03-27T08:48:40.527Z,5.600
2023-03-27T08:49:38.666Z,2.800
2023-03-27T08:51:38.074Z,2.400
2023-03-27T08:52:38.324Z,2.400
2023-03-27T08:53:38.655Z,2.600
2023-03-27T08:54:37.791Z,2.300
2023-03-27T08:55:37.986Z,2.000
2023-03-27T08:56:38.324Z,2.000
2023-03-27T08:57:38.783Z,2.200
2023-03-27T08:58:38.009Z,2.400
2023-03-27T08:59:38.281Z,1.700
2023-03-27T09:00:38.585Z,2.100
2023-03-27T09:01:39.261Z,2.300
2023-03-27T09:02:38.783Z,1.800
2023-03-27T09:03:38.397Z,1.300
2023-03-27T09:04:40.644Z,1.700
2023-03-27T09:08:38.703Z,1.500
2023-03-27T09:09:38.495Z,1.700
2023-03-27T09:10:39.416Z,1.800
2023-03-27T09:11:39.413Z,1.800
2023-03-27T09:12:40.276Z,1.800
2023-03-27T09:14:38.738Z,2.000
2023-03-27T09:15:37.938Z,1.600
2023-03-27T09:16:38.477Z,1.700
2023-03-27T09:17:38.879Z,1.700
2023-03-27T09:18:38.079Z,1.800
2023-03-27T09:19:38.683Z,1.500
2023-03-27T09:20:38.058Z,1.600
2023-03-27T09:21:38.391Z,1.500
2023-03-27T09:22:38.780Z,1.900
2023-03-27T09:23:39.802Z,1.600
2023-03-27T09:24:37.978Z,1.600
2023-03-27T09:25:38.580Z,2.000
2023-03-27T09:26:38.952Z,1.500
2023-03-27T09:27:38.163Z,1.800
2023-03-27T09:28:38.372Z,1.500
2023-03-27T09:29:39.216Z,1.600
2023-03-27T09:30:38.412Z,1.500
2023-03-27T09:31:39.116Z,1.300
2023-03-27T09:32:38.554Z,1.600
2023-03-27T09:33:38.851Z,1.600
2023-03-27T09:34:38.005Z,1.800
2023-03-27T09:35:38.707Z,1.800
2023-03-27T09:36:38.141Z,1.500
2023-03-27T09:37:40.009Z,1.800
2023-03-27T09:40:38.608Z,1.600
2023-03-27T09:42:38.618Z,1.500
2023-03-27T09:43:40.946Z,1.600
2023-03-27T09:44:38.239Z,1.800
2023-03-27T09:45:38.509Z,1.700
2023-03-27T09:46:39.189Z,2.100
2023-03-27T09:47:38.456Z,2.000
2023-03-27T09:48:38.997Z,2.000
2023-03-27T09:49:38.243Z,1.800
2023-03-27T09:50:38.523Z,1.600
2023-03-27T09:51:38.735Z,1.400
2023-03-27T09:52:37.878Z,2.200
2023-03-27T09:53:38.228Z,1.400
2023-03-27T09:54:38.533Z,1.500
2023-03-27T09:55:38.752Z,1.600
2023-03-27T09:56:38.160Z,1.700
2023-03-27T09:57:38.572Z,1.800
2023-03-27T09:58:38.844Z,1.800
2023-03-27T09:59:37.945Z,1.700
2023-03-27T10:00:38.456Z,1.700
2023-03-27T10:01:38.997Z,1.700
2023-03-27T10:02:38.378Z,1.300
2023-03-27T10:03:39.239Z,1.400
2023-03-27T10:04:38.613Z,1.700
2023-03-27T10:05:37.772Z,2.100
2023-03-27T10:06:38.055Z,1.500
2023-03-27T10:07:38.301Z,1.400
2023-03-27T10:08:38.513Z,1.400
2023-03-27T10:09:38.719Z,1.800
2023-03-27T10:10:37.957Z,1.600
2023-03-27T10:11:38.209Z,2.200
2023-03-27T10:12:38.468Z,2.100
2023-03-27T10:13:38.808Z,1.800
2023-03-27T10:14:37.973Z,1.800
2023-03-27T10:15:38.251Z,1.600
2023-03-27T10:16:38.827Z,1.800
2023-03-27T10:17:38.089Z,1.800
2023-03-27T10:18:38.361Z,2.000
2023-03-27T10:19:38.667Z,2.100
2023-03-27T10:20:37.908Z,2.700
2023-03-27T10:21:38.167Z,1.200
2023-03-27T10:22:38.294Z,2.300
2023-03-27T10:23:39.032Z,2.300
2023-03-27T10:24:44.237Z,2.000
2023-03-27T10:25:38.101Z,2.100
2023-03-27T10:26:38.420Z,1.600
2023-03-27T10:27:38.918Z,2.400
2023-03-27T10:28:38.092Z,1.700
2023-03-27T10:29:41.166Z,1.800
2023-03-27T10:32:38.359Z,1.400
2023-03-27T10:33:38.686Z,1.600
2023-03-27T10:34:37.920Z,1.800
2023-03-27T10:35:39.954Z,2.100
2023-03-27T10:37:38.362Z,1.800
2023-03-27T10:38:38.696Z,2.300
2023-03-27T10:39:38.239Z,2.100
2023-03-27T10:40:40.896Z,2.100
2023-03-27T10:41:46.247Z,1.600
2023-03-27T10:44:38.145Z,1.800
2023-03-27T10:45:38.592Z,1.400
2023-03-27T10:47:38.556Z,1.200
2023-03-27T10:48:38.845Z,1.600
2023-03-27T10:49:37.972Z,1.600
2023-03-27T10:50:38.184Z,1.800
2023-03-27T10:51:48.134Z,1.800
2023-03-27T10:53:39.252Z,1.600
2023-03-27T10:54:38.795Z,1.700
2023-03-27T10:55:38.001Z,1.500
2023-03-27T10:56:38.486Z,1.500
2023-03-27T10:57:39.021Z,1.300
2023-03-27T10:58:38.285Z,1.500
2023-03-27T10:59:48.249Z,1.400
2023-03-27T11:01:38.261Z,1.300
2023-03-27T11:02:38.668Z,1.300
2023-03-27T11:03:38.380Z,1.400
2023-03-27T11:04:38.783Z,1.800
2023-03-27T11:05:38.098Z,1.400
2023-03-27T11:06:42.291Z,1.800
2023-03-27T11:08:38.746Z,2.000
2023-03-27T11:09:37.919Z,1.600
2023-03-27T11:10:38.158Z,1.500
2023-03-27T11:11:38.356Z,1.500
2023-03-27T11:12:38.729Z,1.700
2023-03-27T11:13:37.968Z,1.300
2023-03-27T11:14:38.411Z,1.400
2023-03-27T11:15:38.611Z,1.500
2023-03-27T11:16:38.082Z,1.500
2023-03-27T11:17:38.566Z,2.200
2023-03-27T11:18:38.975Z,1.700
2023-03-27T11:19:38.317Z,1.600
2023-03-27T11:20:38.512Z,2.000
2023-03-27T11:21:38.750Z,2.200
2023-03-27T11:22:37.934Z,2.000
2023-03-27T11:23:38.149Z,1.500
2023-03-27T11:24:38.416Z,1.600
2023-03-27T11:25:38.772Z,2.000
2023-03-27T11:26:37.963Z,2.000
2023-03-27T11:27:38.345Z,2.000
2023-03-27T11:28:38.615Z,2.600
2023-03-27T11:29:38.868Z,2.200
2023-03-27T11:30:38.102Z,2.000
2023-03-27T11:31:43.647Z,1.400
2023-03-27T11:33:38.297Z,1.600
2023-03-27T11:36:38.323Z,1.800
2023-03-27T11:37:38.563Z,1.500
2023-03-27T11:38:39.416Z,1.600
2023-03-27T11:39:37.907Z,1.200
2023-03-27T11:40:38.084Z,1.600
2023-03-27T11:41:38.287Z,1.300
2023-03-27T11:42:38.692Z,1.500
2023-03-27T11:43:37.872Z,1.300
2023-03-27T11:44:38.040Z,1.600
2023-03-27T11:45:38.332Z,1.600
2023-03-27T11:46:38.915Z,1.500
2023-03-27T11:48:38.565Z,1.400
2023-03-27T11:49:38.880Z,2.000
2023-03-27T11:50:38.006Z,1.900
2023-03-27T11:51:38.249Z,2.000
2023-03-27T11:52:38.620Z,1.800
2023-03-27T11:53:37.820Z,2.000
2023-03-27T11:54:38.062Z,1.600
2023-03-27T11:55:38.396Z,2.100
2023-03-27T11:56:38.826Z,1.500
2023-03-27T11:57:38.109Z,1.400
2023-03-27T11:58:38.405Z,1.500
2023-03-27T11:59:38.613Z,1.600
2023-03-27T12:00:37.885Z,1.200
2023-03-27T12:01:38.462Z,1.300
2023-03-27T12:02:39.145Z,1.200
2023-03-27T12:03:39.086Z,1.600
2023-03-27T12:04:38.340Z,1.000
2023-03-27T12:05:38.519Z,1.400
2023-03-27T12:06:38.908Z,1.800
2023-03-27T12:07:51.151Z,1.600
2023-03-27T12:10:46.403Z,1.200
2023-03-27T12:14:01.476Z,1.300
2023-03-27T12:15:48.655Z,2.100
2023-03-27T12:16:48.051Z,1.400
2023-03-27T12:17:48.578Z,1.600
2023-03-27T12:19:08.315Z,2.200
2023-03-27T12:23:00.356Z,2.000
2023-03-27T12:26:56.627Z,1.600
2023-03-27T12:27:56.785Z,1.400
2023-03-27T12:28:58.261Z,2.300
2023-03-27T12:30:00.274Z,1.600
2023-03-27T12:31:56.409Z,1.800
2023-03-27T12:34:56.024Z,2.000
2023-03-27T12:35:58.080Z,1.500
2023-03-27T12:36:56.188Z,1.700
2023-03-27T12:37:56.460Z,1.400
2023-03-27T12:38:56.881Z,1.700
2023-03-27T12:39:56.260Z,1.500
2023-03-27T12:40:56.794Z,1.500
2023-03-27T12:41:56.496Z,1.200
2023-03-27T12:43:01.882Z,1.700
2023-03-27T12:46:06.836Z,2.000
2023-03-27T12:47:56.881Z,1.900
2023-03-27T12:48:56.137Z,1.500
2023-03-27T12:50:04.798Z,1.300
2023-03-27T12:52:56.452Z,1.100
2023-03-27T12:53:56.807Z,0.900
2023-03-27T12:54:55.905Z,1.200
2023-03-27T12:55:56.301Z,0.900
2023-03-27T12:56:57.186Z,1.200
2023-03-27T12:57:57.257Z,1.100
2023-03-27T12:58:56.855Z,1.100
2023-03-27T13:02:06.084Z,1.300
2023-03-27T13:04:56.047Z,1.300
2023-03-27T13:06:01.205Z,1.100
2023-03-27T13:07:57.758Z,1.000
2023-03-27T13:09:56.142Z,0.900
2023-03-27T13:10:56.953Z,1.000
2023-03-27T13:12:56.744Z,1.100
2023-03-27T13:13:56.033Z,1.000
2023-03-27T13:14:56.460Z,1.200
2023-03-27T13:15:57.291Z,1.100
2023-03-27T13:16:56.680Z,1.400
2023-03-27T13:17:56.448Z,1.100
2023-03-27T13:18:56.845Z,1.100
2023-03-27T13:19:56.069Z,1.200
2023-03-27T13:20:56.342Z,1.300
2023-03-27T13:21:56.663Z,1.300
2023-03-27T13:22:55.889Z,1.200
2023-03-27T13:23:56.385Z,1.500
2023-03-27T13:24:56.659Z,1.200
2023-03-27T13:25:56.248Z,1.400
2023-03-27T13:26:56.676Z,1.200
2023-03-27T13:27:55.900Z,1.200
2023-03-27T13:28:56.177Z,1.300
2023-03-27T13:30:00.399Z,1.300
2023-03-27T13:30:58.039Z,1.300
2023-03-27T13:32:56.205Z,1.700
2023-03-27T13:33:56.440Z,1.400
2023-03-27T13:34:56.848Z,1.500
2023-03-27T13:35:56.852Z,1.300
2023-03-27T13:37:06.922Z,1.800
2023-03-27T13:39:56.404Z,1.200
2023-03-27T13:40:56.677Z,1.500
2023-03-27T13:41:55.977Z,1.500
2023-03-27T13:42:56.185Z,0.600
2023-03-27T13:43:56.412Z,0.900
2023-03-27T13:44:56.636Z,0.900
2023-03-27T13:45:55.948Z,0.800
2023-03-27T13:46:56.649Z,0.800
2023-03-27T13:47:56.198Z,0.700
2023-03-27T13:48:56.405Z,0.900
2023-03-27T13:49:57.035Z,0.800
2023-03-27T13:50:56.384Z,0.700
2023-03-27T13:51:56.670Z,0.900
2023-03-27T13:52:55.976Z,0.700
2023-03-27T13:53:58.561Z,0.800
2023-03-27T13:54:56.783Z,1.000
2023-03-27T13:55:56.197Z,0.800
2023-03-27T13:56:56.670Z,0.900
2023-03-27T13:57:55.873Z,0.900
2023-03-27T13:58:56.128Z,0.900
2023-03-27T13:59:56.309Z,0.800
2023-03-27T14:00:56.712Z,0.900
2023-03-27T14:01:56.224Z,1.200
2023-03-27T14:02:56.887Z,1.100
2023-03-27T14:03:56.577Z,1.000
2023-03-27T14:04:55.860Z,1.000
2023-03-27T14:05:58.772Z,1.200
2023-03-27T14:07:56.696Z,0.900
2023-03-27T14:08:57.314Z,1.000
2023-03-27T14:09:55.903Z,1.200
2023-03-27T14:10:56.320Z,1.100
2023-03-27T14:11:57.159Z,1.100
2023-03-27T14:12:56.856Z,1.100
2023-03-27T14:13:56.409Z,1.300
2023-03-27T14:14:56.741Z,0.800
2023-03-27T14:15:56.455Z,1.300
2023-03-27T14:16:57.023Z,1.100
2023-03-27T14:17:56.607Z,1.200
2023-03-27T14:18:55.891Z,1.000
2023-03-27T14:19:56.232Z,1.100
2023-03-27T14:20:56.765Z,1.100
2023-03-27T14:21:56.420Z,1.500
2023-03-27T14:22:56.819Z,1.300
2023-03-27T14:23:56.035Z,1.200
2023-03-27T14:24:56.311Z,1.000
2023-03-27T14:25:56.844Z,1.000
2023-03-27T14:26:56.192Z,1.200
2023-03-27T14:27:56.453Z,1.200
2023-03-27T14:28:57.021Z,1.200
2023-03-27T14:29:56.224Z,1.200
2023-03-27T14:31:56.240Z,1.100
2023-03-27T14:32:56.710Z,1.200
2023-03-27T14:33:55.892Z,1.300
2023-03-27T14:35:05.898Z,1.300
2023-03-27T14:37:55.860Z,1.200
2023-03-27T14:38:56.052Z,1.500
2023-03-27T14:39:56.286Z,1.500
2023-03-27T14:40:56.774Z,1.400
2023-03-27T14:41:56.087Z,1.300
2023-03-27T14:42:56.305Z,1.600
2023-03-27T14:43:56.544Z,1.300
2023-03-27T14:44:57.045Z,1.400
2023-03-27T14:45:57.064Z,1.300
2023-03-27T14:46:56.061Z,1.800
2023-03-27T14:47:56.509Z,1.700
2023-03-27T14:48:56.725Z,1.400
2023-03-27T14:49:55.892Z,1.500
2023-03-27T14:50:56.505Z,1.900
2023-03-27T14:51:55.828Z,1.500
2023-03-27T14:52:57.324Z,1.600
2023-03-27T14:53:56.609Z,1.900
2023-03-27T14:57:56.878Z,1.400
2023-03-27T14:58:55.971Z,1.300
2023-03-27T14:59:56.128Z,1.400
2023-03-27T15:00:56.418Z,1.600
2023-03-27T15:01:56.833Z,1.600
2023-03-27T15:02:56.307Z,1.600
2023-03-27T15:03:56.851Z,1.900
2023-03-27T15:04:56.136Z,1.700
2023-03-27T15:05:56.761Z,1.300
2023-03-27T15:06:56.158Z,1.500
2023-03-27T15:07:56.419Z,1.400
2023-03-27T15:08:56.765Z,1.300
2023-03-27T15:09:56.029Z,1.500
2023-03-27T15:10:56.954Z,1.500
2023-03-27T15:11:56.096Z,1.400